createdAt,value
2023-04-27T00:01:52.986Z,98519.75
2023-04-27T00:04:20.844Z,98521.85
2023-04-27T00:06:48.809Z,98520.95
2023-04-27T00:09:16.508Z,98526.04
2023-04-27T00:11:44.332Z,98523.27
2023-04-27T00:14:11.970Z,98523.44
2023-04-27T00:16:39.655Z,98520.09
2023-04-27T00:19:09.059Z,98521.84
2023-04-27T00:21:36.697Z,98518.39
2023-04-27T00:24:04.488Z,98519.98
2023-04-27T00:26:32.549Z,98519.69
2023-04-27T00:29:00.167Z,98519.05
2023-04-27T00:31:27.846Z,98517.38
2023-04-27T00:33:55.483Z,98513.92
2023-04-27T00:36:23.071Z,98517.89
2023-04-27T00:38:50.715Z,98516.55
2023-04-27T00:41:18.301Z,98515.72
2023-04-27T00:43:46.228Z,98516.87
2023-04-27T00:46:14.218Z,98518.91
2023-04-27T00:48:41.961Z,98520.54
2023-04-27T00:51:09.589Z,98522.77
2023-04-27T00:53:37.426Z,98525.52
2023-04-27T00:56:05.906Z,98520.77
2023-04-27T00:58:33.562Z,98525.13
2023-04-27T01:01:01.303Z,98529.19
2023-04-27T01:03:29.129Z,98528.19
2023-04-27T01:05:59.322Z,98528.05
2023-04-27T01:08:28.431Z,98531.20
2023-04-27T01:10:56.391Z,98527.73
2023-04-27T01:13:24.484Z,98526.48
2023-04-27T01:15:52.148Z,98526.02
2023-04-27T01:18:19.773Z,98523.06
2023-04-27T01:20:47.444Z,98525.98
2023-04-27T01:23:17.238Z,98527.42
2023-04-27T01:25:45.284Z,98531.06
2023-04-27T01:28:12.910Z,98534.28
2023-04-27T01:30:40.582Z,98532.40
2023-04-27T01:33:08.231Z,98536.75
2023-04-27T01:35:36.194Z,98534.20
2023-04-27T01:38:03.799Z,98537.85
2023-04-27T01:40:31.407Z,98532.55
2023-04-27T01:42:59.027Z,98534.86
2023-04-27T01:45:26.770Z,98535.95
2023-04-27T01:47:54.377Z,98534.03
2023-04-27T01:50:22.122Z,98533.93
2023-04-27T01:52:49.802Z,98536.08
2023-04-27T01:55:17.478Z,98534.55
2023-04-27T01:57:45.130Z,98537.38
2023-04-27T02:00:13.419Z,98539.14
2023-04-27T02:02:41.414Z,98535.67
2023-04-27T02:05:09.892Z,98537.92
2023-04-27T02:07:37.536Z,98539.27
2023-04-27T02:10:05.848Z,98541.85
2023-04-27T02:12:33.466Z,98544.00
2023-04-27T02:15:01.101Z,98543.35
2023-04-27T02:17:29.607Z,98540.45
2023-04-27T02:19:57.721Z,98538.29
2023-04-27T02:22:25.404Z,98537.87
2023-04-27T02:24:53.155Z,98535.98
2023-04-27T02:27:20.777Z,98533.00
2023-04-27T02:29:48.955Z,98532.39
2023-04-27T02:32:17.101Z,98536.17
2023-04-27T02:34:44.886Z,98537.80
2023-04-27T02:37:12.491Z,98539.77
2023-04-27T02:39:40.086Z,98543.89
2023-04-27T02:42:07.725Z,98542.11
2023-04-27T02:44:35.480Z,98545.15
2023-04-27T02:47:03.145Z,98544.17
2023-04-27T02:49:30.810Z,98541.48
2023-04-27T02:51:58.393Z,98543.44
2023-04-27T02:54:26.126Z,98541.88
2023-04-27T02:56:53.727Z,98540.44
2023-04-27T02:59:21.408Z,98541.11
2023-04-27T03:01:49.209Z,98544.30
2023-04-27T03:04:17.968Z,98546.35
2023-04-27T03:06:45.764Z,98547.17
2023-04-27T03:09:14.011Z,98545.89
2023-04-27T03:11:41.839Z,98553.99
2023-04-27T03:14:09.596Z,98555.88
2023-04-27T03:16:37.249Z,98554.84
2023-04-27T03:19:04.947Z,98558.98
2023-04-27T03:21:32.767Z,98559.52
2023-04-27T03:24:00.467Z,98560.09
2023-04-27T03:26:28.087Z,98561.17
2023-04-27T03:28:56.056Z,98569.53
2023-04-27T03:31:23.885Z,98568.40
2023-04-27T03:33:51.993Z,98566.90
2023-04-27T03:36:19.602Z,98567.20
2023-04-27T03:38:47.498Z,98570.67
2023-04-27T03:41:15.113Z,98574.46
2023-04-27T03:43:42.742Z,98573.77
2023-04-27T03:46:10.440Z,98575.81
2023-04-27T03:48:38.131Z,98580.27
2023-04-27T03:51:06.825Z,98578.39
2023-04-27T03:53:34.922Z,98579.55
2023-04-27T03:56:03.084Z,98582.40
2023-04-27T03:58:30.898Z,98582.47
2023-04-27T04:00:58.791Z,98583.56
2023-04-27T04:03:26.487Z,98584.52
2023-04-27T04:05:54.234Z,98583.96
2023-04-27T04:08:21.883Z,98587.30
2023-04-27T04:10:49.496Z,98589.77
2023-04-27T04:13:17.138Z,98590.59
2023-04-27T04:15:44.786Z,98594.27
2023-04-27T04:18:12.572Z,98593.04
2023-04-27T04:20:40.153Z,98598.70
2023-04-27T04:23:07.768Z,98597.92
2023-04-27T04:25:35.448Z,98594.86
2023-04-27T04:28:03.093Z,98597.80
2023-04-27T04:30:30.707Z,98601.58
2023-04-27T04:32:58.773Z,98603.44
2023-04-27T04:35:26.819Z,98609.10
2023-04-27T04:37:54.430Z,98608.41
2023-04-27T04:40:22.130Z,98612.80
2023-04-27T04:42:49.750Z,98605.77
2023-04-27T04:45:17.473Z,98610.31
2023-04-27T04:47:45.187Z,98614.30
2023-04-27T04:50:13.303Z,98611.10
2023-04-27T04:52:41.020Z,98617.34
2023-04-27T04:55:09.248Z,98617.11
2023-04-27T04:57:37.397Z,98619.45
2023-04-27T05:00:07.842Z,98620.75
2023-04-27T05:02:35.541Z,98620.64
2023-04-27T05:05:03.540Z,98622.78
2023-04-27T05:07:31.245Z,98624.98
2023-04-27T05:09:58.912Z,98628.30
2023-04-27T05:12:26.579Z,98629.10
2023-04-27T05:14:54.185Z,98632.41
2023-04-27T05:17:21.824Z,98633.38
2023-04-27T05:19:49.446Z,98630.79
2023-04-27T05:22:17.058Z,98631.77
2023-04-27T05:24:44.734Z,98636.55
2023-04-27T05:27:13.759Z,98632.50
2023-04-27T05:29:41.453Z,98634.68
2023-04-27T05:32:09.737Z,98637.00
2023-04-27T05:34:37.574Z,98638.84
2023-04-27T05:37:05.435Z,98639.44
2023-04-27T05:39:33.216Z,98640.91
2023-04-27T05:42:02.676Z,98647.25
2023-04-27T05:44:31.094Z,98647.30
2023-04-27T05:46:58.773Z,98641.78
2023-04-27T05:49:26.718Z,98641.42
2023-04-27T05:51:54.401Z,98648.72
2023-04-27T05:54:22.107Z,98648.19
2023-04-27T05:56:51.277Z,98649.31
2023-04-27T05:59:19.368Z,98652.30
2023-04-27T06:01:47.106Z,98656.71
2023-04-27T06:04:15.151Z,98659.81
2023-04-27T06:06:44.818Z,98661.16
2023-04-27T06:09:12.878Z,98659.52
2023-04-27T06:11:40.879Z,98661.45
2023-04-27T06:14:08.523Z,98663.27
2023-04-27T06:16:36.528Z,98662.98
2023-04-27T06:19:04.118Z,98664.61
2023-04-27T06:21:35.111Z,98662.13
2023-04-27T06:24:02.791Z,98662.21
2023-04-27T06:26:30.418Z,98660.02
2023-04-27T06:28:58.126Z,98662.62
2023-04-27T06:31:26.848Z,98661.05
2023-04-27T06:33:54.551Z,98656.66
2023-04-27T06:36:22.292Z,98658.98
2023-04-27T06:38:49.898Z,98662.64
2023-04-27T06:41:17.508Z,98664.23
2023-04-27T06:43:45.127Z,98665.40
2023-04-27T06:46:12.761Z,98663.33
2023-04-27T06:48:41.134Z,98668.71
2023-04-27T06:51:08.749Z,98669.44
2023-04-27T06:53:36.892Z,98672.37
2023-04-27T06:56:04.917Z,98672.00
2023-04-27T06:58:32.689Z,98666.78
2023-04-27T07:01:00.315Z,98666.81
2023-04-27T07:03:28.083Z,98660.41
2023-04-27T07:05:57.341Z,98664.42
2023-04-27T07:08:25.032Z,98659.73
2023-04-27T07:10:52.646Z,98661.59
2023-04-27T07:13:20.289Z,98664.31
2023-04-27T07:15:47.994Z,98665.13
2023-04-27T07:18:15.640Z,98659.86
2023-04-27T07:20:43.286Z,98659.97
2023-04-27T07:23:11.162Z,98661.30
2023-04-27T07:25:40.330Z,98656.27
2023-04-27T07:28:08.976Z,98657.20
2023-04-27T07:30:37.018Z,98656.92
2023-04-27T07:33:05.131Z,98654.69
2023-04-27T07:35:32.995Z,98656.94
2023-04-27T07:38:03.278Z,98657.16
2023-04-27T07:40:32.895Z,98657.36
2023-04-27T07:43:00.683Z,98654.94
2023-04-27T07:45:32.448Z,98656.52
2023-04-27T07:48:00.595Z,98652.81
2023-04-27T07:50:30.124Z,98653.43
2023-04-27T07:52:57.954Z,98651.31
2023-04-27T07:55:25.836Z,98651.25
2023-04-27T07:57:53.743Z,98654.63
2023-04-27T08:00:22.212Z,98656.92
2023-04-27T08:02:50.719Z,98661.28
2023-04-27T08:05:19.038Z,98663.92
2023-04-27T08:07:47.801Z,98664.80
2023-04-27T08:10:15.911Z,98663.73
2023-04-27T08:12:43.560Z,98660.16
2023-04-27T08:15:11.573Z,98659.52
2023-04-27T08:17:42.024Z,98656.94
2023-04-27T08:20:11.621Z,98660.61
2023-04-27T08:22:40.617Z,98660.57
2023-04-27T08:25:09.041Z,98663.42
2023-04-27T08:27:37.842Z,98663.54
2023-04-27T08:30:06.280Z,98666.98
2023-04-27T08:32:34.221Z,98660.93
2023-04-27T08:35:01.979Z,98662.94
2023-04-27T08:37:29.589Z,98666.96
2023-04-27T08:39:57.187Z,98663.11
2023-04-27T08:42:24.830Z,98664.35
2023-04-27T08:44:52.444Z,98666.87
2023-04-27T08:47:25.730Z,98665.52
2023-04-27T08:49:56.054Z,98662.59
2023-04-27T08:52:23.680Z,98664.05
2023-04-27T08:54:51.440Z,98669.56
2023-04-27T08:57:19.106Z,98666.00
2023-04-27T08:59:46.730Z,98669.44
2023-04-27T09:02:21.257Z,98671.11
2023-04-27T09:04:49.063Z,98669.14
2023-04-27T09:07:17.638Z,98665.41
2023-04-27T09:09:45.365Z,98659.02
2023-04-27T09:12:20.817Z,98661.81
2023-04-27T09:15:06.262Z,98656.67
2023-04-27T09:17:34.052Z,98656.17
2023-04-27T09:20:10.260Z,98655.66
2023-04-27T09:22:48.037Z,98655.34
2023-04-27T09:25:29.378Z,98659.60
2023-04-27T09:27:58.266Z,98658.08
2023-04-27T09:30:29.469Z,98652.00
2023-04-27T09:32:59.234Z,98649.94
2023-04-27T09:35:29.218Z,98655.16
2023-04-27T09:37:57.235Z,98658.84
2023-04-27T09:40:30.790Z,98661.63
2023-04-27T09:43:01.623Z,98663.73
2023-04-27T09:45:29.406Z,98658.88
2023-04-27T09:47:58.219Z,98656.86
2023-04-27T09:50:25.927Z,98658.87
2023-04-27T09:52:53.556Z,98655.34
2023-04-27T09:55:25.942Z,98656.71
2023-04-27T09:58:06.418Z,98658.59
2023-04-27T10:01:04.824Z,98661.60
2023-04-27T10:03:47.776Z,98663.15
2023-04-27T10:06:36.282Z,98666.65
2023-04-27T10:09:06.968Z,98663.77
2023-04-27T10:11:42.111Z,98664.94
2023-04-27T10:14:18.200Z,98667.67
2023-04-27T10:16:56.777Z,98664.14
2023-04-27T10:19:25.057Z,98667.77
2023-04-27T10:21:53.959Z,98665.91
2023-04-27T10:24:31.045Z,98667.38
2023-04-27T10:27:05.856Z,98663.17
2023-04-27T10:29:43.851Z,98665.27
2023-04-27T10:32:19.162Z,98667.10
2023-04-27T10:34:48.829Z,98669.98
2023-04-27T10:37:16.835Z,98670.08
2023-04-27T10:39:49.413Z,98667.41
2023-04-27T10:42:30.522Z,98669.11
2023-04-27T10:44:58.347Z,98667.91
2023-04-27T10:47:36.601Z,98668.27
2023-04-27T10:50:05.716Z,98673.26
2023-04-27T10:52:33.428Z,98670.46
2023-04-27T10:55:21.403Z,98668.80
2023-04-27T10:57:53.331Z,98668.73
2023-04-27T11:00:25.574Z,98671.55
2023-04-27T11:02:54.167Z,98665.42
2023-04-27T11:05:29.687Z,98668.94
2023-04-27T11:08:07.759Z,98668.45
2023-04-27T11:10:35.929Z,98668.94
2023-04-27T11:13:31.038Z,98671.33
2023-04-27T11:15:59.406Z,98674.08
2023-04-27T11:18:31.689Z,98676.35
2023-04-27T11:21:15.786Z,98680.73
2023-04-27T11:23:43.697Z,98674.45
2023-04-27T11:26:16.219Z,98671.61
2023-04-27T11:28:44.358Z,98671.97
2023-04-27T11:31:12.020Z,98678.11
2023-04-27T11:33:40.332Z,98677.37
2023-04-27T11:36:21.652Z,98674.36
2023-04-27T11:38:49.430Z,98682.30
2023-04-27T11:41:17.740Z,98682.21
2023-04-27T11:43:49.773Z,98685.46
2023-04-27T11:46:22.473Z,98684.54
2023-04-27T11:48:50.732Z,98683.27
2023-04-27T11:51:18.380Z,98683.95
2023-04-27T11:53:47.812Z,98686.27
2023-04-27T11:56:15.783Z,98687.03
2023-04-27T11:58:46.266Z,98684.88
2023-04-27T12:01:16.650Z,98685.50
2023-04-27T12:03:47.653Z,98689.09
2023-04-27T12:06:32.193Z,98678.16
2023-04-27T12:09:01.278Z,98682.31
2023-04-27T12:11:28.932Z,98679.52
2023-04-27T12:13:56.965Z,98677.14
2023-04-27T12:16:24.747Z,98679.45
2023-04-27T12:18:52.441Z,98683.23
2023-04-27T12:21:20.320Z,98684.16
2023-04-27T12:23:47.922Z,98680.54
2023-04-27T12:26:15.617Z,98681.09
2023-04-27T12:28:43.727Z,98679.70
2023-04-27T12:31:13.964Z,98677.92
2023-04-27T12:33:41.753Z,98677.02
2023-04-27T12:36:09.482Z,98678.67
2023-04-27T12:38:37.566Z,98676.98
2023-04-27T12:41:05.264Z,98679.27
2023-04-27T12:43:33.014Z,98683.37
2023-04-27T12:46:00.625Z,98688.89
2023-04-27T12:48:28.608Z,98688.27
2023-04-27T12:50:56.885Z,98692.00
2023-04-27T12:53:24.515Z,98695.05
2023-04-27T12:55:53.466Z,98694.27
2023-04-27T12:58:21.678Z,98688.13
2023-04-27T13:00:49.288Z,98692.13
2023-04-27T13:03:17.067Z,98690.20
2023-04-27T13:05:45.659Z,98689.52
2023-04-27T13:08:13.352Z,98693.05
2023-04-27T13:10:41.658Z,98689.42
2023-04-27T13:13:09.282Z,98686.67
2023-04-27T13:15:37.468Z,98685.98
2023-04-27T13:18:06.602Z,98689.85
2023-04-27T13:20:34.597Z,98687.58
2023-04-27T13:23:04.803Z,98683.73
2023-04-27T13:25:32.441Z,98685.50
2023-04-27T13:28:00.126Z,98680.43
2023-04-27T13:30:28.200Z,98679.55
2023-04-27T13:33:04.396Z,98684.27
2023-04-27T13:35:38.511Z,98685.06
2023-04-27T13:38:06.292Z,98686.44
2023-04-27T13:40:34.046Z,98686.73
2023-04-27T13:43:01.630Z,98691.56
2023-04-27T13:45:29.240Z,98689.80
2023-04-27T13:47:56.846Z,98695.73
2023-04-27T13:50:24.592Z,98696.02
2023-04-27T13:52:52.202Z,98696.59
2023-04-27T13:55:19.818Z,98699.52
2023-04-27T13:57:47.422Z,98698.08
2023-04-27T14:00:15.597Z,98698.55
2023-04-27T14:02:43.269Z,98699.80
2023-04-27T14:05:11.308Z,98697.40
2023-04-27T14:07:38.874Z,98695.73
2023-04-27T14:10:07.294Z,98691.94
2023-04-27T14:12:35.937Z,98694.60
2023-04-27T14:15:03.798Z,98697.04
2023-04-27T14:17:31.459Z,98697.23
2023-04-27T14:19:59.066Z,98702.66
2023-04-27T14:22:26.800Z,98702.92
2023-04-27T14:24:56.441Z,98707.06
2023-04-27T14:27:24.155Z,98705.27
2023-04-27T14:29:51.766Z,98704.95
2023-04-27T14:32:19.476Z,98704.13
2023-04-27T14:34:47.514Z,98704.29
2023-04-27T14:37:15.183Z,98706.64
2023-04-27T14:39:45.131Z,98705.63
2023-04-27T14:42:13.257Z,98703.58
2023-04-27T14:44:40.980Z,98702.80
2023-04-27T14:47:08.734Z,98704.25
2023-04-27T14:49:36.380Z,98703.52
2023-04-27T14:52:06.558Z,98701.67
2023-04-27T14:54:35.589Z,98698.73
2023-04-27T14:57:03.582Z,98696.29
2023-04-27T14:59:31.222Z,98695.95
2023-04-27T15:01:58.976Z,98696.66
2023-04-27T15:04:26.832Z,98699.09
2023-04-27T15:06:54.550Z,98694.52
2023-04-27T15:09:22.240Z,98693.80
2023-04-27T15:11:49.986Z,98693.27
2023-04-27T15:14:17.668Z,98697.84
2023-04-27T15:16:45.358Z,98702.77
2023-04-27T15:19:13.586Z,98702.59
2023-04-27T15:21:41.469Z,98703.83
2023-04-27T15:24:09.206Z,98699.45
2023-04-27T15:26:36.863Z,98703.98
2023-04-27T15:29:04.537Z,98706.40
2023-04-27T15:31:32.239Z,98706.19
2023-04-27T15:33:59.888Z,98702.83
2023-04-27T15:36:28.360Z,98700.71
2023-04-27T15:38:56.020Z,98703.34
2023-04-27T15:41:23.685Z,98706.33
2023-04-27T15:43:51.864Z,98705.09
2023-04-27T15:46:19.620Z,98698.69
2023-04-27T15:48:47.272Z,98704.97
2023-04-27T15:51:15.109Z,98699.34
2023-04-27T15:53:42.739Z,98698.56
2023-04-27T15:56:10.341Z,98694.85
2023-04-27T15:58:38.035Z,98697.14
2023-04-27T16:01:05.757Z,98702.88
2023-04-27T16:03:34.848Z,98704.04
2023-04-27T16:06:02.704Z,98696.83
2023-04-27T16:08:32.265Z,98700.55
2023-04-27T16:11:00.786Z,98702.35
2023-04-27T16:13:31.454Z,98701.29
2023-04-27T16:15:59.530Z,98702.80
2023-04-27T16:18:27.181Z,98706.10
2023-04-27T16:20:55.123Z,98703.98
2023-04-27T16:23:24.346Z,98700.78
2023-04-27T16:25:52.457Z,98703.34
2023-04-27T16:28:20.607Z,98702.92
2023-04-27T16:30:48.229Z,98709.31
2023-04-27T16:33:16.390Z,98708.23
2023-04-27T16:35:44.049Z,98707.96
2023-04-27T16:38:11.644Z,98707.80
2023-04-27T16:40:39.271Z,98708.13
2023-04-27T16:43:06.873Z,98709.38
2023-04-27T16:45:34.568Z,98705.71
2023-04-27T16:48:02.531Z,98709.21
2023-04-27T16:50:31.742Z,98715.16
2023-04-27T16:53:07.032Z,98713.63
2023-04-27T16:55:35.060Z,98712.29
2023-04-27T16:58:02.682Z,98720.27
2023-04-27T17:00:30.483Z,98722.11
2023-04-27T17:02:58.164Z,98721.36
2023-04-27T17:05:26.004Z,98721.17
2023-04-27T17:07:53.688Z,98725.08
2023-04-27T17:10:21.468Z,98724.31
2023-04-27T17:12:49.199Z,98724.06
2023-04-27T17:15:18.325Z,98729.34
2023-04-27T17:17:45.946Z,98731.92
2023-04-27T17:20:13.599Z,98727.70
2023-04-27T17:22:41.263Z,98726.99
2023-04-27T17:25:09.271Z,98730.31
2023-04-27T17:27:36.893Z,98732.86
2023-04-27T17:30:05.187Z,98735.36
2023-04-27T17:32:33.408Z,98735.91
2023-04-27T17:35:01.137Z,98732.20
2023-04-27T17:37:28.792Z,98737.71
2023-04-27T17:39:56.439Z,98734.45
2023-04-27T17:42:24.028Z,98738.42
2023-04-27T17:44:51.734Z,98737.14
2023-04-27T17:47:20.568Z,98745.66
2023-04-27T17:49:48.239Z,98746.63
2023-04-27T17:52:16.053Z,98748.32
2023-04-27T17:54:43.648Z,98750.52
2023-04-27T17:57:11.331Z,98750.63
2023-04-27T17:59:38.939Z,98747.61
2023-04-27T18:02:06.792Z,98755.38
2023-04-27T18:04:34.685Z,98753.20
2023-04-27T18:07:02.485Z,98756.61
2023-04-27T18:09:32.752Z,98756.54
2023-04-27T18:12:00.886Z,98761.33
2023-04-27T18:14:28.526Z,98762.29
2023-04-27T18:16:56.300Z,98763.23
2023-04-27T18:19:24.022Z,98766.77
2023-04-27T18:21:51.735Z,98763.70
2023-04-27T18:24:19.380Z,98767.61
2023-04-27T18:26:47.059Z,98770.10
2023-04-27T18:29:14.875Z,98773.86
2023-04-27T18:31:42.787Z,98775.86
2023-04-27T18:34:10.743Z,98776.46
2023-04-27T18:36:38.425Z,98780.73
2023-04-27T18:39:06.373Z,98780.64
2023-04-27T18:41:34.055Z,98776.71
2023-04-27T18:44:05.918Z,98784.20
2023-04-27T18:46:33.870Z,98789.13
2023-04-27T18:49:01.856Z,98788.46
2023-04-27T18:51:29.467Z,98787.66
2023-04-27T18:53:57.123Z,98789.86
2023-04-27T18:56:24.725Z,98790.99
2023-04-27T18:58:53.316Z,98791.83
2023-04-27T19:01:25.518Z,98795.72
2023-04-27T19:03:53.705Z,98798.99
2023-04-27T19:06:21.552Z,98797.58
2023-04-27T19:08:49.312Z,98800.02
2023-04-27T19:11:19.527Z,98798.10
2023-04-27T19:13:47.110Z,98806.97
2023-04-27T19:16:15.577Z,98800.38
2023-04-27T19:18:43.521Z,98801.05
2023-04-27T19:21:11.367Z,98803.65
2023-04-27T19:23:39.166Z,98802.59
2023-04-27T19:26:13.150Z,98806.52
2023-04-27T19:28:41.791Z,98804.17
2023-04-27T19:31:10.100Z,98810.02
2023-04-27T19:33:38.088Z,98802.86
2023-04-27T19:36:06.056Z,98808.54
2023-04-27T19:38:34.303Z,98807.12
2023-04-27T19:41:04.238Z,98810.23
2023-04-27T19:43:32.024Z,98806.73
2023-04-27T19:46:01.443Z,98804.85
2023-04-27T19:48:29.098Z,98809.19
2023-04-27T19:50:56.756Z,98809.04
2023-04-27T19:53:24.443Z,98813.02
2023-04-27T19:55:52.151Z,98815.95
2023-04-27T19:58:19.759Z,98814.02
2023-04-27T20:00:47.384Z,98816.39
2023-04-27T20:03:16.354Z,98815.51
2023-04-27T20:05:44.911Z,98815.02
2023-04-27T20:08:12.790Z,98818.34
2023-04-27T20:10:41.327Z,98809.55
2023-04-27T20:13:09.907Z,98818.98
2023-04-27T20:15:37.667Z,98816.48
2023-04-27T20:18:05.698Z,98815.02
2023-04-27T20:20:33.899Z,98814.08
2023-04-27T20:23:01.516Z,98816.47
2023-04-27T20:25:29.203Z,98815.23
2023-04-27T20:27:56.801Z,98817.96
2023-04-27T20:30:24.899Z,98821.20
2023-04-27T20:32:52.702Z,98819.73
2023-04-27T20:35:20.889Z,98820.05
2023-04-27T20:37:48.985Z,98822.74
2023-04-27T20:40:17.751Z,98814.68
2023-04-27T20:42:45.823Z,98819.73
2023-04-27T20:45:13.783Z,98819.45
2023-04-27T20:47:42.125Z,98819.14
2023-04-27T20:50:09.986Z,98818.83
2023-04-27T20:52:37.693Z,98818.50
2023-04-27T20:55:06.292Z,98813.45
2023-04-27T20:57:33.927Z,98815.31
2023-04-27T21:00:01.544Z,98818.55
2023-04-27T21:02:29.317Z,98823.50
2023-04-27T21:04:57.175Z,98828.24
2023-04-27T21:07:24.933Z,98833.30
2023-04-27T21:09:52.524Z,98834.04
2023-04-27T21:12:20.202Z,98834.27
2023-04-27T21:14:47.820Z,98833.61
2023-04-27T21:17:15.650Z,98837.65
2023-04-27T21:19:43.285Z,98837.46
2023-04-27T21:22:11.081Z,98832.99
2023-04-27T21:24:38.703Z,98832.00
2023-04-27T21:27:06.499Z,98834.70
2023-04-27T21:29:35.499Z,98834.91
2023-04-27T21:32:03.216Z,98836.77
2023-04-27T21:34:31.051Z,98829.37
2023-04-27T21:36:58.633Z,98833.83
2023-04-27T21:39:26.296Z,98829.63
2023-04-27T21:41:53.927Z,98833.58
2023-04-27T21:44:21.551Z,98833.07
2023-04-27T21:46:49.275Z,98832.70
2023-04-27T21:49:17.038Z,98834.58
2023-04-27T21:51:44.602Z,98836.81
2023-04-27T21:54:12.351Z,98830.60
2023-04-27T21:56:40.217Z,98830.45
2023-04-27T21:59:08.207Z,98829.10
2023-04-27T22:01:35.877Z,98826.84
2023-04-27T22:04:05.120Z,98827.67
2023-04-27T22:06:33.609Z,98826.97
2023-04-27T22:09:01.504Z,98829.45
2023-04-27T22:11:29.157Z,98836.16
2023-04-27T22:13:57.339Z,98833.60
2023-04-27T22:16:25.184Z,98835.02
2023-04-27T22:18:53.976Z,98833.41
2023-04-27T22:21:21.708Z,98836.13
2023-04-27T22:23:49.514Z,98832.66
2023-04-27T22:26:17.193Z,98835.41
2023-04-27T22:28:44.872Z,98840.87
2023-04-27T22:31:12.488Z,98837.46
2023-04-27T22:33:40.118Z,98839.71
2023-04-27T22:36:08.197Z,98837.80
2023-04-27T22:38:36.091Z,98837.78
2023-04-27T22:41:03.891Z,98838.73
2023-04-27T22:43:31.642Z,98839.58
2023-04-27T22:45:59.248Z,98842.48
2023-04-27T22:48:27.198Z,98839.48
2023-04-27T22:50:54.795Z,98839.98
2023-04-27T22:53:23.107Z,98841.16
2023-04-27T22:55:51.034Z,98836.80
2023-04-27T22:58:18.809Z,98835.89
2023-04-27T23:00:46.450Z,98832.05
2023-04-27T23:03:14.553Z,98835.67
2023-04-27T23:05:43.262Z,98834.96
2023-04-27T23:08:10.924Z,98832.11
2023-04-27T23:10:38.985Z,98834.09
2023-04-27T23:13:07.415Z,98831.77
2023-04-27T23:15:35.137Z,98832.22
2023-04-27T23:18:03.202Z,98826.71
2023-04-27T23:20:31.180Z,98829.52
2023-04-27T23:22:58.841Z,98834.32
2023-04-27T23:25:26.534Z,98828.15
2023-04-27T23:27:54.169Z,98828.50
2023-04-27T23:30:22.481Z,98827.23
2023-04-27T23:32:50.576Z,98825.05
2023-04-27T23:35:18.412Z,98825.30
2023-04-27T23:37:46.039Z,98820.29
2023-04-27T23:40:14.395Z,98820.52
2023-04-27T23:42:42.096Z,98820.36
2023-04-27T23:45:10.370Z,98822.14
2023-04-27T23:47:38.059Z,98818.16
2023-04-27T23:50:06.299Z,98819.04
2023-04-27T23:52:33.934Z,98815.08
2023-04-27T23:55:01.806Z,98814.25
2023-04-27T23:57:29.429Z,98813.55
2023-04-27T23:59:57.032Z,98810.23
